Fillmore, Indiana
Current Conditions -  °F | °C
As of 8:55 AM on Monday 24 Nov 2014 (Local Time) from K4I7 Reporting Station
Overcast Overcast  
Wind Chill: 36°   Ceiling: 1100
Heat Index: 43°   Visibility: 10mi
Dew Point: 37°   Wind: 14mph
Humidity: 81%   Direction: 270°W
Pressure: 29.33"   Gusts: 28mph
Location:  39.67°N, 86.75°W
Report Text: K4I7 241355Z AUTO 27012G24KT 10SM OVC011 06/03 A2933 RMK AO2
Loading
Personal Weather Stations






























Interactive Weather Map New forecast layout! Learn more

10-Day Weather Forecast

Advertisements
Track Severe Weather on mobile